Time;durP1;ratioP1;P1;durP2;ratioP2;P2;SDS_P1;SDS_P2;PMS_P1;PMS_P2;Temp;Humidity;BMP_temperature;BMP_pressure;BME280_temperature;BME280_humidity;BME280_pressure;Samples;Min_cycle;Max_cycle;Signal;HPM_P1;HPM_P2
2022/07/11 00:01:45;;;;;;;;;;;461.30;2380.80;;;;;;5090516;28;19973;-58
2022/07/11 00:04:10;;;;;;;;;;;461.30;2380.80;;;;;;5090780;28;19938;-59
2022/07/11 00:06:36;;;;;;;;;;;461.30;2380.80;;;;;;5090632;28;20010;-59
2022/07/11 00:09:01;;;;;;;;;;;461.20;2380.80;;;;;;5090460;28;19962;-58
2022/07/11 00:11:27;;;;;;;;;;;461.20;2380.80;;;;;;5090579;28;19916;-59
2022/07/11 00:13:52;;;;;;;;;;;461.30;2380.80;;;;;;5090494;28;20365;-58
2022/07/11 00:16:18;;;;;;;;;;;461.20;2380.80;;;;;;5090535;28;20006;-58
2022/07/11 00:18:44;;;;;;;;;;;461.20;2380.80;;;;;;5090379;28;19908;-56
2022/07/11 00:21:10;;;;;;;;;;;461.10;2380.80;;;;;;5090550;28;19999;-56
2022/07/11 00:23:36;;;;;;;;;;;461.10;2380.80;;;;;;5090278;28;20000;-57
2022/07/11 00:26:02;;;;;;;;;;;461.10;2380.80;;;;;;5093918;28;19912;-58
2022/07/11 00:28:27;;;;;;;;;;;461.10;2380.80;;;;;;5094644;28;20462;-58
2022/07/11 00:30:53;;;;;;;;;;;461.10;2380.80;;;;;;5094408;28;19908;-57
2022/07/11 00:33:19;;;;;;;;;;;461.10;2380.80;;;;;;5094452;28;20385;-58
2022/07/11 00:35:44;;;;;;;;;;;461.00;2380.80;;;;;;5094498;28;19955;-58
2022/07/11 00:38:10;;;;;;;;;;;461.00;2380.80;;;;;;5094474;28;19908;-57
2022/07/11 00:40:36;;;;;;;;;;;460.90;2380.80;;;;;;5094337;28;19916;-58
2022/07/11 00:43:05;;;;;;;;;;;460.90;2380.80;;;;;;5094376;28;19916;-57
2022/07/11 00:45:30;;;;;;;;;;;460.80;2355.20;;;;;;5094146;28;19908;-58
2022/07/11 00:47:56;;;;;;;;;;;460.80;2355.20;;;;;;5094067;28;19917;-57
2022/07/11 00:50:23;;;;;;;;;;;460.80;2355.20;;;;;;5094188;28;20323;-57
2022/07/11 00:52:50;;;;;;;;;;;460.80;2329.60;;;;;;5094174;28;19961;-58
2022/07/11 00:55:15;;;;;;;;;;;460.80;2329.60;;;;;;5094144;28;19912;-58
2022/07/11 00:57:41;;;;;;;;;;;460.80;2329.60;;;;;;5094178;28;20004;-59
2022/07/11 01:00:08;;;;;;;;;;;436.10;2304.00;;;;;;5093867;28;19935;-59
2022/07/11 01:02:34;;;;;;;;;;;436.10;2304.00;;;;;;5093698;28;19912;-57
2022/07/11 01:05:00;;;;;;;;;;;436.00;2304.00;;;;;;5094030;28;19916;-56
2022/07/11 01:07:25;;;;;;;;;;;436.00;2304.00;;;;;;5093768;28;19916;-57
2022/07/11 01:09:51;;;;;;;;;;;436.00;2304.00;;;;;;5094077;28;19919;-57
2022/07/11 01:12:17;;;;;;;;;;;436.00;2304.00;;;;;;5093897;28;20285;-58
2022/07/11 01:14:52;;;;;;;;;;;435.90;2304.00;;;;;;5093627;28;20340;-57
2022/07/11 01:17:17;;;;;;;;;;;435.90;2304.00;;;;;;5093849;28;19908;-58
2022/07/11 01:19:43;;;;;;;;;;;435.90;2278.40;;;;;;5093567;28;19915;-59
2022/07/11 01:22:09;;;;;;;;;;;435.90;2304.00;;;;;;5093671;28;19915;-59
2022/07/11 01:24:34;;;;;;;;;;;435.90;2304.00;;;;;;5093474;28;19915;-58
2022/07/11 01:27:01;;;;;;;;;;;435.90;2304.00;;;;;;5093517;28;19916;-58
2022/07/11 01:29:26;;;;;;;;;;;435.90;2329.60;;;;;;5093485;28;19951;-58
2022/07/11 01:31:52;;;;;;;;;;;435.80;2355.20;;;;;;5093277;28;20346;-58
2022/07/11 01:34:17;;;;;;;;;;;435.70;2355.20;;;;;;5092681;28;20281;-57
2022/07/11 01:36:43;;;;;;;;;;;435.70;2355.20;;;;;;5091932;28;20327;-58
2022/07/11 01:39:09;;;;;;;;;;;435.70;2355.20;;;;;;5093052;28;19919;-57
2022/07/11 01:41:34;;;;;;;;;;;435.60;2355.20;;;;;;5089756;28;20404;-56
2022/07/11 01:44:00;;;;;;;;;;;435.60;2355.20;;;;;;5093236;28;19912;-59
2022/07/11 01:46:26;;;;;;;;;;;435.50;2355.20;;;;;;5092671;28;20382;-57
2022/07/11 01:48:51;;;;;;;;;;;435.40;2355.20;;;;;;5093256;28;19936;-57
2022/07/11 01:51:17;;;;;;;;;;;435.30;2355.20;;;;;;5093565;28;19908;-57
2022/07/11 01:53:42;;;;;;;;;;;435.30;2355.20;;;;;;5092935;28;19908;-55
2022/07/11 01:56:08;;;;;;;;;;;435.30;2355.20;;;;;;5093025;28;19915;-58
2022/07/11 01:58:34;;;;;;;;;;;435.30;2355.20;;;;;;5092780;28;19990;-58
2022/07/11 02:00:59;;;;;;;;;;;435.30;2355.20;;;;;;5092836;28;19946;-58
2022/07/11 02:03:25;;;;;;;;;;;435.30;2355.20;;;;;;5092701;28;20269;-57
2022/07/11 02:05:50;;;;;;;;;;;435.30;2355.20;;;;;;5092918;28;19912;-58
2022/07/11 02:08:17;;;;;;;;;;;435.30;2355.20;;;;;;5092989;28;19954;-57
2022/07/11 02:10:44;;;;;;;;;;;435.30;2355.20;;;;;;5092566;28;20015;-57
2022/07/11 02:13:10;;;;;;;;;;;435.30;2355.20;;;;;;5092922;28;19908;-58
2022/07/11 02:15:36;;;;;;;;;;;435.30;2355.20;;;;;;5092419;28;19953;-57
2022/07/11 02:18:02;;;;;;;;;;;435.40;2355.20;;;;;;5092381;28;19912;-57
2022/07/11 02:20:27;;;;;;;;;;;435.40;2355.20;;;;;;5092523;28;19908;-56
2022/07/11 02:22:53;;;;;;;;;;;435.30;2355.20;;;;;;5092260;28;19916;-57
2022/07/11 02:25:19;;;;;;;;;;;435.30;2355.20;;;;;;5092445;28;19919;-57
2022/07/11 02:27:45;;;;;;;;;;;435.30;2355.20;;;;;;5092377;28;20026;-56
2022/07/11 02:30:10;;;;;;;;;;;435.30;2355.20;;;;;;5092414;28;20259;-57
2022/07/11 02:32:36;;;;;;;;;;;435.30;2355.20;;;;;;5092240;28;20008;-59
2022/07/11 02:35:02;;;;;;;;;;;435.30;2355.20;;;;;;5092081;28;19909;-57
2022/07/11 02:37:27;;;;;;;;;;;435.30;2329.60;;;;;;5092157;28;19908;-57
2022/07/11 02:39:53;;;;;;;;;;;435.20;2329.60;;;;;;5092224;28;19915;-57
2022/07/11 02:42:18;;;;;;;;;;;435.20;2329.60;;;;;;5092044;28;20289;-57
2022/07/11 02:44:45;;;;;;;;;;;410.50;2355.20;;;;;;5091893;28;19914;-59
2022/07/11 02:47:10;;;;;;;;;;;410.50;2329.60;;;;;;5090561;28;20281;-58
2022/07/11 02:49:36;;;;;;;;;;;410.50;2329.60;;;;;;5091713;28;19908;-57
2022/07/11 02:52:02;;;;;;;;;;;410.50;2329.60;;;;;;5091639;28;19915;-57
2022/07/11 02:54:28;;;;;;;;;;;410.50;2329.60;;;;;;5092101;28;20426;-58
2022/07/11 02:56:54;;;;;;;;;;;410.50;2329.60;;;;;;5091772;28;19915;-57
2022/07/11 02:59:19;;;;;;;;;;;410.30;2355.20;;;;;;5091993;28;19908;-56
2022/07/11 03:01:45;;;;;;;;;;;410.40;2355.20;;;;;;5091405;28;20054;-58
2022/07/11 03:04:12;;;;;;;;;;;410.40;2355.20;;;;;;5091734;28;20251;-58
2022/07/11 03:06:40;;;;;;;;;;;410.40;2355.20;;;;;;5091459;28;19923;-57
2022/07/11 03:09:07;;;;;;;;;;;410.30;2355.20;;;;;;5091441;28;19915;-57
2022/07/11 03:11:32;;;;;;;;;;;410.20;2355.20;;;;;;5091182;28;19922;-57
2022/07/11 03:13:58;;;;;;;;;;;410.20;2355.20;;;;;;5091712;28;20002;-58
2022/07/11 03:16:24;;;;;;;;;;;410.20;2355.20;;;;;;5091296;28;19908;-58
2022/07/11 03:18:50;;;;;;;;;;;410.10;2355.20;;;;;;5091444;28;19912;-56
2022/07/11 03:21:15;;;;;;;;;;;410.10;2355.20;;;;;;5091193;28;19916;-58
2022/07/11 03:23:41;;;;;;;;;;;410.10;2355.20;;;;;;5091372;28;19990;-57
2022/07/11 03:26:06;;;;;;;;;;;410.20;2355.20;;;;;;5091038;28;19923;-56
2022/07/11 03:28:32;;;;;;;;;;;410.10;2355.20;;;;;;5091221;28;19908;-58
2022/07/11 03:30:57;;;;;;;;;;;410.10;2355.20;;;;;;5091225;28;19951;-58
2022/07/11 03:33:23;;;;;;;;;;;410.00;2355.20;;;;;;5090903;28;20265;-57
2022/07/11 03:35:49;;;;;;;;;;;410.00;2355.20;;;;;;5091208;28;19908;-57
2022/07/11 03:38:17;;;;;;;;;;;410.00;2355.20;;;;;;5090895;28;19908;-58
2022/07/11 03:40:43;;;;;;;;;;;410.10;2355.20;;;;;;5089620;28;19966;-57
2022/07/11 03:43:09;;;;;;;;;;;410.20;2355.20;;;;;;5091170;28;19947;-57
2022/07/11 03:45:34;;;;;;;;;;;410.10;2355.20;;;;;;5090676;28;19915;-56
2022/07/11 03:48:00;;;;;;;;;;;410.20;2355.20;;;;;;5090704;28;19923;-59
2022/07/11 03:50:25;;;;;;;;;;;410.20;2355.20;;;;;;5090797;28;19947;-57
2022/07/11 03:52:52;;;;;;;;;;;410.20;2355.20;;;;;;5090928;28;20376;-57
2022/07/11 03:55:18;;;;;;;;;;;410.30;2355.20;;;;;;5090835;28;19914;-57
2022/07/11 03:57:43;;;;;;;;;;;410.30;2355.20;;;;;;5090725;28;19908;-57
2022/07/11 04:00:09;;;;;;;;;;;410.20;2329.60;;;;;;5090107;28;19920;-58
2022/07/11 04:02:35;;;;;;;;;;;410.30;2304.00;;;;;;5090646;28;19908;-58
2022/07/11 04:05:01;;;;;;;;;;;410.40;2304.00;;;;;;5090805;28;19908;-56
2022/07/11 04:07:29;;;;;;;;;;;410.40;2278.40;;;;;;5090685;28;19916;-57
2022/07/11 04:09:55;;;;;;;;;;;410.50;2278.40;;;;;;5090531;28;20350;-57
2022/07/11 04:12:21;;;;;;;;;;;410.50;2252.80;;;;;;5090534;28;19969;-58
2022/07/11 04:14:47;;;;;;;;;;;435.20;2252.80;;;;;;5090923;28;19912;-57
2022/07/11 04:17:13;;;;;;;;;;;435.20;2252.80;;;;;;5090420;28;20361;-57
2022/07/11 04:19:39;;;;;;;;;;;435.20;2252.80;;;;;;5090605;28;19908;-56
2022/07/11 04:22:04;;;;;;;;;;;435.30;2227.20;;;;;;5090346;28;19915;-58
2022/07/11 04:24:30;;;;;;;;;;;435.40;2252.80;;;;;;5090606;28;20258;-57
2022/07/11 04:26:56;;;;;;;;;;;435.50;2252.80;;;;;;5090290;28;20288;-58
2022/07/11 04:29:23;;;;;;;;;;;435.60;2227.20;;;;;;5090407;28;19912;-57
2022/07/11 04:31:50;;;;;;;;;;;435.60;2227.20;;;;;;5090385;28;19917;-57
2022/07/11 04:34:16;;;;;;;;;;;435.80;2227.20;;;;;;5090352;28;19908;-57
2022/07/11 04:36:42;;;;;;;;;;;435.90;2201.60;;;;;;5090197;28;20006;-57
2022/07/11 04:39:08;;;;;;;;;;;436.10;2227.20;;;;;;5090173;28;19955;-57
2022/07/11 04:41:33;;;;;;;;;;;461.50;2176.00;;;;;;5089964;28;19923;-57
2022/07/11 04:43:59;;;;;;;;;;;589.60;1766.40;;;;;;5090604;28;19908;-57
2022/07/11 04:46:25;;;;;;;;;;;691.60;1459.20;;;;;;5090059;28;19912;-58
2022/07/11 04:48:50;;;;;;;;;;;742.90;1331.20;;;;;;5090799;28;20277;-57
2022/07/11 04:51:17;;;;;;;;;;;794.20;1228.80;;;;;;5090178;28;19908;-57
2022/07/11 04:53:42;;;;;;;;;;;820.10;1126.40;;;;;;5090110;28;19915;-58
2022/07/11 04:56:08;;;;;;;;;;;870.70;1075.20;;;;;;5090220;28;19908;-58
2022/07/11 04:58:34;;;;;;;;;;;896.60;998.40;;;;;;5089865;28;19908;-58
2022/07/11 05:01:00;;;;;;;;;;;896.60;972.80;;;;;;5089914;28;20054;-58
2022/07/11 05:03:26;;;;;;;;;;;922.30;947.20;;;;;;5089984;28;20112;-59
2022/07/11 05:05:51;;;;;;;;;;;947.20;947.20;;;;;;5090024;28;20453;-58
2022/07/11 05:08:17;;;;;;;;;;;947.20;921.60;;;;;;5090247;28;19912;-58
2022/07/11 05:10:43;;;;;;;;;;;947.40;921.60;;;;;;5089774;28;19916;-59
2022/07/11 05:13:08;;;;;;;;;;;922.40;921.60;;;;;;5093664;28;19998;-56
2022/07/11 05:15:34;;;;;;;;;;;;;;;;;;5093548;28;20281;-58
2022/07/11 05:18:00;;;;;;;;;;;;;;;;;;5093679;28;19952;-59
2022/07/11 05:20:25;;;;;;;;;;;947.70;896.00;;;;;;5093539;28;20384;-59
2022/07/11 05:22:51;;;;;;;;;;;998.40;896.00;;;;;;5093645;28;20003;-59
2022/07/11 05:25:17;;;;;;;;;;;998.40;870.40;;;;;;5093664;28;19915;-59
2022/07/11 05:27:42;;;;;;;;;;;999.20;870.40;;;;;;5093644;28;19967;-59
2022/07/11 05:30:08;;;;;;;;;;;1024.30;844.80;;;;;;5093572;28;20358;-58
2022/07/11 05:32:34;;;;;;;;;;;1024.70;819.20;;;;;;5093288;28;19915;-59
2022/07/11 05:35:02;;;;;;;;;;;1049.60;819.20;;;;;;5093491;28;20281;-59
2022/07/11 05:37:28;;;;;;;;;;;1024.30;844.80;;;;;;5093162;28;19908;-59
2022/07/11 05:39:53;;;;;;;;;;;999.30;819.20;;;;;;5093250;28;20265;-59
2022/07/11 05:42:19;;;;;;;;;;;1024.60;819.20;;;;;;5093262;28;19920;-59
2022/07/11 05:44:44;;;;;;;;;;;1049.60;819.20;;;;;;5093207;28;19916;-60
2022/07/11 05:47:10;;;;;;;;;;;1050.30;793.60;;;;;;5093183;28;19924;-57
2022/07/11 05:49:36;;;;;;;;;;;1050.40;793.60;;;;;;5092930;28;19915;-59
2022/07/11 05:52:04;;;;;;;;;;;1050.10;793.60;;;;;;5093024;28;19919;-58
2022/07/11 05:54:30;;;;;;;;;;;999.30;819.20;;;;;;5093203;28;19908;-57
2022/07/11 05:56:55;;;;;;;;;;;1024.60;793.60;;;;;;5093141;28;19908;-58
2022/07/11 05:59:21;;;;;;;;;;;1075.40;768.00;;;;;;5093053;28;19912;-59
2022/07/11 06:01:47;;;;;;;;;;;1050.50;768.00;;;;;;5092661;28;19920;-59
2022/07/11 06:04:12;;;;;;;;;;;1100.80;768.00;;;;;;5092965;28;19961;-58
2022/07/11 06:06:38;;;;;;;;;;;1100.90;742.40;;;;;;5092660;28;19912;-59
2022/07/11 06:09:04;;;;;;;;;;;1101.50;742.40;;;;;;5092608;28;20302;-59
2022/07/11 06:11:30;;;;;;;;;;;1101.50;716.80;;;;;;5092470;28;19960;-58
2022/07/11 06:13:55;;;;;;;;;;;1126.40;742.40;;;;;;5092771;28;20255;-58
2022/07/11 06:16:21;;;;;;;;;;;1126.60;742.40;;;;;;5092618;28;20382;-60
2022/07/11 06:18:47;;;;;;;;;;;1126.90;716.80;;;;;;5092848;28;19908;-59
2022/07/11 06:21:13;;;;;;;;;;;1152.10;716.80;;;;;;5092564;28;19909;-59
2022/07/11 06:23:40;;;;;;;;;;;1152.20;716.80;;;;;;5092232;28;19915;-61
2022/07/11 06:26:06;;;;;;;;;;;1152.10;691.20;;;;;;5092208;28;19908;-59
2022/07/11 06:28:31;;;;;;;;;;;1126.40;742.40;;;;;;5092627;28;19908;-61
2022/07/11 06:30:57;;;;;;;;;;;1152.10;716.80;;;;;;5092354;28;20380;-61
2022/07/11 06:33:23;;;;;;;;;;;1101.60;716.80;;;;;;5092141;28;20372;-58
2022/07/11 06:35:49;;;;;;;;;;;1126.80;742.40;;;;;;5092244;28;19934;-61
2022/07/11 06:38:15;;;;;;;;;;;1127.30;716.80;;;;;;5092179;28;19908;-61
2022/07/11 06:40:45;;;;;;;;;;;1127.10;716.80;;;;;;5092129;28;19916;-61
2022/07/11 06:43:11;;;;;;;;;;;1126.70;716.80;;;;;;5092389;28;19908;-61
2022/07/11 06:45:37;;;;;;;;;;;1152.70;691.20;;;;;;5092145;28;19908;-61
2022/07/11 06:48:03;;;;;;;;;;;1152.50;691.20;;;;;;5091771;28;20007;-58
2022/07/11 06:50:28;;;;;;;;;;;1177.60;691.20;;;;;;5091964;28;19908;-60
2022/07/11 06:52:54;;;;;;;;;;;1178.00;665.60;;;;;;5091749;28;19909;-61
2022/07/11 06:55:20;;;;;;;;;;;1127.10;716.80;;;;;;5091896;28;20410;-61
2022/07/11 06:57:45;;;;;;;;;;;1152.00;691.20;;;;;;5091716;28;20013;-61
2022/07/11 07:00:11;;;;;;;;;;;1152.10;691.20;;;;;;5091994;28;19968;-56
2022/07/11 07:02:38;;;;;;;;;;;1126.70;716.80;;;;;;5091628;28;19908;-60
2022/07/11 07:05:04;;;;;;;;;;;1127.30;716.80;;;;;;5091605;28;19909;-61
2022/07/11 07:07:30;;;;;;;;;;;1152.70;691.20;;;;;;5091591;28;20069;-60
2022/07/11 07:09:55;;;;;;;;;;;1127.10;691.20;;;;;;5091476;28;20002;-58
2022/07/11 07:12:21;;;;;;;;;;;1152.20;691.20;;;;;;5091523;28;20333;-60
2022/07/11 07:14:47;;;;;;;;;;;1152.50;691.20;;;;;;5091659;28;20285;-60
2022/07/11 07:17:12;;;;;;;;;;;1178.00;665.60;;;;;;5091294;28;19915;-61
2022/07/11 07:19:38;;;;;;;;;;;1178.50;640.00;;;;;;5091603;28;19908;-58
2022/07/11 07:22:05;;;;;;;;;;;1203.20;640.00;;;;;;5091305;28;19908;-61
2022/07/11 07:24:36;;;;;;;;;;;1152.70;665.60;;;;;;5091428;28;19908;-61
2022/07/11 07:27:02;;;;;;;;;;;1152.70;665.60;;;;;;5091060;28;19926;-61
2022/07/11 07:29:28;;;;;;;;;;;1152.60;665.60;;;;;;5091393;28;20342;-61
2022/07/11 07:31:53;;;;;;;;;;;1152.60;691.20;;;;;;5091127;28;19908;-60
2022/07/11 07:34:20;;;;;;;;;;;1177.70;665.60;;;;;;5090647;28;19918;-58
2022/07/11 07:36:45;;;;;;;;;;;1178.30;640.00;;;;;;5091260;28;19914;-62
2022/07/11 07:39:11;;;;;;;;;;;1177.70;665.60;;;;;;5091249;28;20010;-62
2022/07/11 07:41:37;;;;;;;;;;;1152.90;665.60;;;;;;5090803;28;19922;-61
2022/07/11 07:44:02;;;;;;;;;;;1178.50;614.40;;;;;;5091029;28;19963;-59
2022/07/11 07:46:28;;;;;;;;;;;1178.10;640.00;;;;;;5091240;28;19923;-58
2022/07/11 07:48:54;;;;;;;;;;;1178.00;640.00;;;;;;5091000;28;19930;-61
2022/07/11 07:51:20;;;;;;;;;;;1203.30;640.00;;;;;;5091075;28;19985;-61
2022/07/11 07:53:46;;;;;;;;;;;1228.90;640.00;;;;;;5090867;28;19908;-61
2022/07/11 07:56:11;;;;;;;;;;;1178.30;640.00;;;;;;5090947;28;19919;-60
2022/07/11 07:58:38;;;;;;;;;;;1178.10;640.00;;;;;;5090661;28;20392;-59
2022/07/11 08:03:48;;;;;;;;;;;1228.90;640.00;;;;;;5091075;28;19915;-60
2022/07/11 08:06:14;;;;;;;;;;;1152.60;665.60;;;;;;5090691;28;19999;-58
2022/07/11 08:08:39;;;;;;;;;;;1101.50;665.60;;;;;;5090806;28;19912;-60
2022/07/11 08:11:05;;;;;;;;;;;1101.70;665.60;;;;;;5090398;28;19923;-58
2022/07/11 08:13:30;;;;;;;;;;;1075.60;716.80;;;;;;5090894;28;20342;-58
2022/07/11 08:15:56;;;;;;;;;;;1075.70;716.80;;;;;;5090590;28;19908;-58
2022/07/11 08:18:21;;;;;;;;;;;1024.90;768.00;;;;;;5090359;28;19912;-61
2022/07/11 08:20:47;;;;;;;;;;;973.50;793.60;;;;;;5090712;28;19909;-59
2022/07/11 08:23:12;;;;;;;;;;;922.10;819.20;;;;;;5090598;28;19908;-60
2022/07/11 08:25:39;;;;;;;;;;;870.90;870.40;;;;;;5090655;28;19908;-60
2022/07/11 08:28:05;;;;;;;;;;;845.40;896.00;;;;;;5090154;28;19916;-59
2022/07/11 08:30:30;;;;;;;;;;;844.90;921.60;;;;;;5090483;28;19915;-58
2022/07/11 08:32:56;;;;;;;;;;;819.50;947.20;;;;;;5090388;28;19908;-58
2022/07/11 08:35:22;;;;;;;;;;;794.50;972.80;;;;;;5090380;28;19935;-59
2022/07/11 08:37:47;;;;;;;;;;;794.20;972.80;;;;;;5090566;28;19908;-56
2022/07/11 08:40:13;;;;;;;;;;;768.90;972.80;;;;;;5090222;28;20277;-60
2022/07/11 08:42:42;;;;;;;;;;;768.90;972.80;;;;;;5090309;28;19917;-59
2022/07/11 08:45:11;;;;;;;;;;;768.50;998.40;;;;;;5090826;28;19970;-56
2022/07/11 08:47:36;;;;;;;;;;;743.10;998.40;;;;;;5094212;28;19998;-60
2022/07/11 08:50:03;;;;;;;;;;;742.60;1024.00;;;;;;5094414;28;19908;-58
2022/07/11 08:52:28;;;;;;;;;;;717.70;1024.00;;;;;;5094397;28;20369;-57
2022/07/11 08:54:55;;;;;;;;;;;717.10;1049.60;;;;;;5094085;28;19915;-59
2022/07/11 08:57:20;;;;;;;;;;;717.20;1049.60;;;;;;5094272;28;19934;-57
2022/07/11 08:59:47;;;;;;;;;;;691.70;1100.80;;;;;;5094147;28;19931;-59
2022/07/11 09:02:13;;;;;;;;;;;691.50;1100.80;;;;;;5094010;28;19955;-58
2022/07/11 09:04:38;;;;;;;;;;;691.50;1100.80;;;;;;5094254;28;19955;-60
2022/07/11 09:07:04;;;;;;;;;;;691.70;1075.20;;;;;;5093786;28;19969;-60
2022/07/11 09:09:30;;;;;;;;;;;691.60;1075.20;;;;;;5093592;28;19912;-58
2022/07/11 09:11:56;;;;;;;;;;;691.20;1075.20;;;;;;5093213;28;20014;-59
2022/07/11 09:14:22;;;;;;;;;;;691.60;1049.60;;;;;;5093630;28;19908;-58
2022/07/11 09:16:55;;;;;;;;;;;666.30;1100.80;;;;;;5093919;28;19912;-59
2022/07/11 09:19:22;;;;;;;;;;;665.90;1152.00;;;;;;5093925;28;20282;-60
2022/07/11 09:27:41;;;;;;;;;;;691.40;1126.40;;;;;;5093416;28;19965;-60
2022/07/11 09:30:35;;;;;;;;;;;716.90;1100.80;;;;;;5093487;28;19999;-59
2022/07/11 09:33:05;;;;;;;;;;;717.50;998.40;;;;;;5091834;28;19953;-59
2022/07/11 09:35:32;;;;;;;;;;;742.40;1049.60;;;;;;5093815;28;19998;-60
2022/07/11 09:37:57;;;;;;;;;;;717.70;1024.00;;;;;;5093713;28;19909;-58
2022/07/11 09:40:25;;;;;;;;;;;717.40;1049.60;;;;;;5093172;28;20377;-58
2022/07/11 09:42:52;;;;;;;;;;;716.90;1075.20;;;;;;5093421;28;19912;-60
2022/07/11 09:45:25;;;;;;;;;;;691.90;1049.60;;;;;;5093307;28;19908;-59
2022/07/11 09:47:52;;;;;;;;;;;691.40;1075.20;;;;;;5093183;28;20014;-58
2022/07/11 09:50:18;;;;;;;;;;;691.40;1075.20;;;;;;5093550;28;19912;-60
2022/07/11 09:52:57;;;;;;;;;;;691.20;1100.80;;;;;;5093054;28;19908;-59
2022/07/11 09:55:24;;;;;;;;;;;691.40;1100.80;;;;;;5092842;28;19925;-60
2022/07/11 09:57:49;;;;;;;;;;;691.80;1075.20;;;;;;5092293;28;19908;-60
2022/07/11 10:00:15;;;;;;;;;;;691.60;1075.20;;;;;;5092798;28;19923;-59
2022/07/11 10:02:41;;;;;;;;;;;692.00;1075.20;;;;;;5092894;28;19951;-60
2022/07/11 10:05:07;;;;;;;;;;;691.40;1075.20;;;;;;5092755;28;19916;-60
2022/07/11 10:07:32;;;;;;;;;;;691.30;1100.80;;;;;;5092495;28;19923;-59
2022/07/11 10:09:59;;;;;;;;;;;666.20;1126.40;;;;;;5093005;28;19908;-59
2022/07/11 10:12:25;;;;;;;;;;;665.90;1177.60;;;;;;5092608;28;20370;-58
2022/07/11 10:14:52;;;;;;;;;;;666.00;1177.60;;;;;;5092663;28;19908;-58
2022/07/11 10:17:22;;;;;;;;;;;666.10;1152.00;;;;;;5092952;28;19912;-60
2022/07/11 10:19:53;;;;;;;;;;;666.00;1177.60;;;;;;5092704;28;19909;-59
2022/07/11 10:22:37;;;;;;;;;;;666.20;1152.00;;;;;;5092765;28;20366;-57
2022/07/11 10:25:26;;;;;;;;;;;666.00;1152.00;;;;;;5092251;28;19912;-59
2022/07/11 10:27:52;;;;;;;;;;;665.60;1177.60;;;;;;5049881;28;19991;-60
2022/07/11 10:30:36;;;;;;;;;;;640.80;1177.60;;;;;;5050051;28;20374;-58
2022/07/11 10:33:05;;;;;;;;;;;640.80;1152.00;;;;;;5050074;28;19999;-60
2022/07/11 10:35:31;;;;;;;;;;;640.80;1177.60;;;;;;5050078;28;19963;-60
2022/07/11 10:37:58;;;;;;;;;;;640.90;1177.60;;;;;;5049714;28;19913;-60
2022/07/11 10:40:47;;;;;;;;;;;665.60;1203.20;;;;;;5049635;28;19924;-58
2022/07/11 10:43:33;;;;;;;;;;;640.90;1177.60;;;;;;5049815;28;19916;-60
2022/07/11 10:46:03;;;;;;;;;;;640.90;1177.60;;;;;;5049412;28;19921;-60
2022/07/11 10:48:30;;;;;;;;;;;665.90;1177.60;;;;;;5049516;28;19984;-57
2022/07/11 10:51:07;;;;;;;;;;;665.90;1177.60;;;;;;5049499;28;19909;-58
2022/07/11 10:53:39;;;;;;;;;;;665.80;1177.60;;;;;;5032757;28;20507;-60
2022/07/11 10:56:14;;;;;;;;;;;665.90;1177.60;;;;;;5049376;28;19951;-59
2022/07/11 10:58:43;;;;;;;;;;;666.20;1152.00;;;;;;5049402;28;19953;-60
2022/07/11 11:01:12;;;;;;;;;;;666.50;1152.00;;;;;;5049316;28;19949;-57
2022/07/11 11:03:39;;;;;;;;;;;691.70;1126.40;;;;;;5049366;28;20401;-58
2022/07/11 11:06:04;;;;;;;;;;;691.80;1100.80;;;;;;5091714;28;19915;-58
2022/07/11 11:08:34;;;;;;;;;;;692.00;1075.20;;;;;;5091189;28;20282;-60
2022/07/11 11:11:00;;;;;;;;;;;691.90;1049.60;;;;;;5091148;28;20385;-59
2022/07/11 11:13:25;;;;;;;;;;;691.70;1075.20;;;;;;5091488;28;19909;-59
2022/07/11 11:15:52;;;;;;;;;;;691.40;1075.20;;;;;;5091589;28;19908;-61
2022/07/11 11:18:23;;;;;;;;;;;691.40;1075.20;;;;;;5091700;28;19915;-59
2022/07/11 11:21:07;;;;;;;;;;;691.40;1024.00;;;;;;5091705;28;19943;-60
2022/07/11 11:23:34;;;;;;;;;;;691.40;1049.60;;;;;;5091089;28;19915;-61
2022/07/11 11:26:19;;;;;;;;;;;691.40;1075.20;;;;;;5091512;28;19928;-61
2022/07/11 11:28:55;;;;;;;;;;;666.20;1100.80;;;;;;5091279;28;19924;-60
2022/07/11 11:31:21;;;;;;;;;;;666.30;1100.80;;;;;;5091512;28;19908;-61
2022/07/11 11:33:47;;;;;;;;;;;691.20;1100.80;;;;;;5091157;28;20357;-60
2022/07/11 11:36:15;;;;;;;;;;;691.40;1100.80;;;;;;5091167;28;19908;-60
2022/07/11 11:38:41;;;;;;;;;;;691.30;1075.20;;;;;;5091128;28;19908;-59
2022/07/11 11:41:07;;;;;;;;;;;691.20;1075.20;;;;;;5090750;28;19916;-60
2022/07/11 11:43:33;;;;;;;;;;;691.20;1075.20;;;;;;5091038;28;19908;-59
2022/07/11 11:45:59;;;;;;;;;;;666.50;1100.80;;;;;;5091047;28;20366;-62
2022/07/11 11:48:28;;;;;;;;;;;691.30;1100.80;;;;;;5090636;28;19922;-60
2022/07/11 11:51:07;;;;;;;;;;;691.20;1100.80;;;;;;5090781;28;19908;-59
2022/07/11 11:53:37;;;;;;;;;;;691.50;1075.20;;;;;;5090732;28;20428;-61
2022/07/11 11:56:16;;;;;;;;;;;691.70;1075.20;;;;;;5090518;28;19912;-61
2022/07/11 11:58:44;;;;;;;;;;;691.90;1049.60;;;;;;5090893;28;19991;-58
2022/07/11 12:01:10;;;;;;;;;;;691.90;1049.60;;;;;;5090700;28;19920;-60
2022/07/11 12:03:52;;;;;;;;;;;692.00;1024.00;;;;;;5090457;28;19908;-60
2022/07/11 12:06:21;;;;;;;;;;;691.90;1024.00;;;;;;5090682;28;19909;-60
2022/07/11 12:08:46;;;;;;;;;;;691.30;1049.60;;;;;;5090936;28;19935;-60
2022/07/11 12:11:15;;;;;;;;;;;666.30;1075.20;;;;;;5090473;28;20370;-59
2022/07/11 12:13:41;;;;;;;;;;;665.90;1126.40;;;;;;5090781;28;20260;-61
2022/07/11 12:19:01;;;;;;;;;;;640.90;1126.40;;;;;;5090630;28;19915;-60
2022/07/11 12:21:28;;;;;;;;;;;640.60;1152.00;;;;;;5090104;28;20006;-60
2022/07/11 12:23:53;;;;;;;;;;;640.50;1126.40;;;;;;5087809;28;19912;-58
2022/07/11 12:26:19;;;;;;;;;;;640.70;1152.00;;;;;;5089086;28;19919;-59
2022/07/11 12:29:04;;;;;;;;;;;640.90;1126.40;;;;;;5088860;28;19919;-60
2022/07/11 12:31:41;;;;;;;;;;;665.90;1152.00;;;;;;5088952;28;19916;-58
2022/07/11 12:34:07;;;;;;;;;;;691.20;1100.80;;;;;;5088581;28;19915;-57
2022/07/11 12:36:33;;;;;;;;;;;691.30;1075.20;;;;;;5088458;28;19912;-58
2022/07/11 12:38:58;;;;;;;;;;;691.40;1075.20;;;;;;5089032;28;20327;-59
2022/07/11 12:41:24;;;;;;;;;;;691.20;1075.20;;;;;;5088564;28;19923;-59
2022/07/11 12:46:36;;;;;;;;;;;666.20;1100.80;;;;;;5088849;28;20011;-59
2022/07/11 12:49:03;;;;;;;;;;;666.00;1126.40;;;;;;5088383;28;19969;-59
2022/07/11 12:51:37;;;;;;;;;;;666.10;1126.40;;;;;;5088834;28;19973;-59
2022/07/11 12:54:13;;;;;;;;;;;665.70;1126.40;;;;;;5088813;28;19908;-60
2022/07/11 12:56:39;;;;;;;;;;;640.70;1100.80;;;;;;5088801;28;19947;-57
2022/07/11 12:59:05;;;;;;;;;;;640.20;1126.40;;;;;;5088500;28;19958;-60
2022/07/11 13:01:31;;;;;;;;;;;640.00;1126.40;;;;;;5088125;28;19930;-58
2022/07/11 13:03:57;;;;;;;;;;;615.20;1177.60;;;;;;5088573;28;19908;-60
2022/07/11 13:09:08;;;;;;;;;;;640.00;1203.20;;;;;;5089024;28;20351;-57
2022/07/11 13:11:34;;;;;;;;;;;615.10;1203.20;;;;;;5088380;28;19916;-58
2022/07/11 13:13:59;;;;;;;;;;;615.00;1203.20;;;;;;5089534;28;19915;-58
2022/07/11 13:16:25;;;;;;;;;;;615.30;1203.20;;;;;;5090505;28;19987;-58
2022/07/11 13:18:51;;;;;;;;;;;640.10;1177.60;;;;;;5090165;28;19908;-57
2022/07/11 13:21:16;;;;;;;;;;;640.10;1203.20;;;;;;5090153;28;19914;-58
2022/07/11 13:23:42;;;;;;;;;;;615.20;1203.20;;;;;;5090093;28;19957;-58
2022/07/11 13:26:08;;;;;;;;;;;615.10;1203.20;;;;;;5089979;28;19912;-58
2022/07/11 13:28:34;;;;;;;;;;;615.20;1203.20;;;;;;5089879;28;19924;-58
2022/07/11 13:31:00;;;;;;;;;;;615.10;1203.20;;;;;;5089854;28;19908;-58
2022/07/11 13:33:26;;;;;;;;;;;615.10;1228.80;;;;;;5092128;28;19908;-60
2022/07/11 13:35:52;;;;;;;;;;;615.00;1228.80;;;;;;5093589;28;20424;-58
2022/07/11 13:38:18;;;;;;;;;;;614.80;1228.80;;;;;;5093647;28;19908;-58
2022/07/11 13:40:44;;;;;;;;;;;614.80;1228.80;;;;;;5091221;28;19993;-57
2022/07/11 13:43:11;;;;;;;;;;;615.00;1228.80;;;;;;5091873;28;19930;-59
2022/07/11 13:45:38;;;;;;;;;;;615.30;1203.20;;;;;;5091891;28;19908;-56
2022/07/11 13:48:04;;;;;;;;;;;640.00;1203.20;;;;;;5091408;28;19916;-58
2022/07/11 13:50:30;;;;;;;;;;;640.40;1152.00;;;;;;5091700;28;19957;-58
2022/07/11 13:52:55;;;;;;;;;;;640.30;1152.00;;;;;;5091334;28;19911;-59
2022/07/11 13:55:22;;;;;;;;;;;640.60;1126.40;;;;;;5091359;28;19912;-59
2022/07/11 13:57:51;;;;;;;;;;;640.90;1126.40;;;;;;5091609;28;20370;-57